createdAt,value
2023-02-04T10:26:30.724Z,71.98
2023-02-04T10:27:31.705Z,71.50
2023-02-04T10:28:31.678Z,71.01
2023-02-04T10:29:31.671Z,71.53
2023-02-04T10:30:32.028Z,70.98
2023-02-04T10:31:31.927Z,70.91
2023-02-04T10:32:31.631Z,71.36
2023-02-04T10:33:31.626Z,71.49
2023-02-04T10:34:31.576Z,72.53
2023-02-04T10:35:31.609Z,72.74
2023-02-04T10:36:31.585Z,72.74
2023-02-04T10:37:31.688Z,72.32
2023-02-04T10:38:31.584Z,73.46
2023-02-04T10:39:31.597Z,71.91
2023-02-04T10:40:31.901Z,71.39
2023-02-04T10:41:31.592Z,71.01
2023-02-04T10:42:31.505Z,72.25
2023-02-04T10:43:31.622Z,71.01
2023-02-04T10:44:31.510Z,72.98
2023-02-04T10:45:31.492Z,72.84
2023-02-04T10:46:31.551Z,71.67
2023-02-04T10:47:31.858Z,71.70
2023-02-04T10:48:31.460Z,71.70
2023-02-04T10:49:31.486Z,72.53
2023-02-04T10:50:31.879Z,71.22
2023-02-04T10:51:31.634Z,70.81
2023-02-04T10:52:31.452Z,71.08
2023-02-04T10:53:31.617Z,70.67
2023-02-04T10:54:31.362Z,69.64
2023-02-04T10:55:31.397Z,70.05
2023-02-04T10:56:31.455Z,68.84
2023-02-04T10:57:31.315Z,71.01
2023-02-04T10:58:31.285Z,71.04
2023-02-04T10:59:31.291Z,72.29
2023-02-04T11:00:31.718Z,72.88
2023-02-04T11:01:31.501Z,70.84
2023-02-04T11:02:31.240Z,69.49
2023-02-04T11:03:31.323Z,69.11
2023-02-04T11:04:31.455Z,69.42
2023-02-04T11:05:31.309Z,70.21
2023-02-04T11:06:31.192Z,71.25
2023-02-04T11:07:31.296Z,69.70
2023-02-04T11:08:31.142Z,68.70
2023-02-04T11:09:31.287Z,69.73
2023-02-04T11:10:31.648Z,68.00
2023-02-04T11:11:31.297Z,68.62
2023-02-04T11:12:31.097Z,67.69
2023-02-04T11:13:31.148Z,69.84
2023-02-04T11:14:31.127Z,67.48
2023-02-04T11:15:31.101Z,68.00
2023-02-04T11:16:31.139Z,67.69
2023-02-04T11:17:31.017Z,68.52
2023-02-04T11:18:31.196Z,68.00
2023-02-04T11:19:31.072Z,70.28
2023-02-04T11:20:31.466Z,68.31
2023-02-04T11:21:30.992Z,68.83
2023-02-04T11:22:30.953Z,68.62
2023-02-04T11:23:30.972Z,68.83
2023-02-04T11:24:31.143Z,67.58
2023-02-04T11:25:31.370Z,68.41
2023-02-04T11:26:30.913Z,68.41
2023-02-04T11:27:30.917Z,69.76
2023-02-04T11:28:30.877Z,69.35
2023-02-04T11:29:30.878Z,70.80
2023-02-04T11:30:30.867Z,68.86
2023-02-04T11:31:31.141Z,69.45
2023-02-04T11:32:30.828Z,71.84
2023-02-04T11:33:30.958Z,69.97
2023-02-04T11:34:30.830Z,70.07
2023-02-04T11:35:31.185Z,68.83
2023-02-04T11:36:30.805Z,70.70
2023-02-04T11:37:31.030Z,69.59
2023-02-04T11:38:30.750Z,72.15
2023-02-04T11:39:30.741Z,71.32
2023-02-04T11:40:30.731Z,70.42
2023-02-04T11:41:30.969Z,70.52
2023-02-04T11:42:30.789Z,70.52
2023-02-04T11:43:30.733Z,72.80
2023-02-04T11:44:30.790Z,72.18
2023-02-04T11:45:31.394Z,72.28
2023-02-04T11:46:30.864Z,71.66
2023-02-04T11:47:30.603Z,72.18
2023-02-04T11:48:30.803Z,72.28
2023-02-04T11:49:30.697Z,70.76
2023-02-04T11:50:30.777Z,70.14
2023-02-04T11:51:30.651Z,71.39
2023-02-04T11:52:30.569Z,70.87
2023-02-04T11:53:30.659Z,71.18
2023-02-04T11:54:30.821Z,70.97
2023-02-04T11:55:31.006Z,71.28
2023-02-04T11:56:30.517Z,71.04
2023-02-04T11:57:30.653Z,73.94
2023-02-04T11:58:30.468Z,72.80
2023-02-04T11:59:30.510Z,72.28
2023-02-04T12:00:30.497Z,69.90
2023-02-04T12:01:30.515Z,69.79
2023-02-04T12:02:30.581Z,71.77
2023-02-04T12:03:30.760Z,71.45
2023-02-04T12:04:30.482Z,71.56
2023-02-04T12:05:30.951Z,71.35
2023-02-04T12:06:30.476Z,71.84
2023-02-04T12:07:30.741Z,73.80
2023-02-04T12:08:30.360Z,72.53
2023-02-04T12:09:30.340Z,73.46
2023-02-04T12:10:30.344Z,72.22
2023-02-04T12:11:30.355Z,71.08
2023-02-04T12:12:30.316Z,71.59
2023-02-04T12:13:30.996Z,71.59
2023-02-04T12:14:30.474Z,72.74
2023-02-04T12:15:30.930Z,71.49
2023-02-04T12:16:30.500Z,72.81
2023-02-04T12:17:30.355Z,73.53
2023-02-04T12:18:30.510Z,72.11
2023-02-04T12:19:30.391Z,72.32
2023-02-04T12:20:30.215Z,72.74
2023-02-04T12:21:30.339Z,72.50
2023-02-04T12:22:30.146Z,72.32
2023-02-04T12:23:30.306Z,73.46
2023-02-04T12:24:30.202Z,73.25
2023-02-04T12:25:30.768Z,73.15
2023-02-04T12:26:30.182Z,72.56
2023-02-04T12:27:30.095Z,73.60
2023-02-04T12:28:30.096Z,72.46
2023-02-04T12:29:30.070Z,73.91
2023-02-04T12:30:30.049Z,74.43
2023-02-04T12:31:30.253Z,73.39
2023-02-04T12:32:30.165Z,74.32
2023-02-04T12:33:30.086Z,73.28
2023-02-04T12:34:30.164Z,73.91
2023-02-04T12:35:30.394Z,74.11
2023-02-04T12:36:29.988Z,75.15
2023-02-04T12:37:30.092Z,74.50
2023-02-04T12:38:29.947Z,74.50
2023-02-04T12:39:30.016Z,74.08
2023-02-04T12:40:29.937Z,72.94
2023-02-04T12:41:30.000Z,73.08
2023-02-04T12:42:29.907Z,73.60
2023-02-04T12:43:30.076Z,74.22
2023-02-04T12:44:29.868Z,74.71
2023-02-04T12:45:30.274Z,74.71
2023-02-04T12:46:29.952Z,74.40
2023-02-04T12:47:29.827Z,75.63
2023-02-04T12:48:29.952Z,74.60
2023-02-04T12:49:30.068Z,73.88
2023-02-04T12:50:29.842Z,74.19
2023-02-04T12:51:29.793Z,74.19
2023-02-04T12:52:29.832Z,75.12
2023-02-04T12:53:29.821Z,74.60
2023-02-04T12:54:29.842Z,76.26
2023-02-04T12:55:30.355Z,74.29
2023-02-04T12:56:29.850Z,73.36
2023-02-04T12:57:29.696Z,71.53
2023-02-04T12:58:29.695Z,72.77
2023-02-04T12:59:29.746Z,72.05
2023-02-04T13:00:29.728Z,72.88
2023-02-04T13:01:29.654Z,72.15
2023-02-04T13:02:29.644Z,71.97
2023-02-04T13:03:29.695Z,70.83
2023-02-04T13:04:29.605Z,71.87
2023-02-04T13:05:29.867Z,70.94
2023-02-04T13:06:29.600Z,71.25
2023-02-04T13:07:29.689Z,72.08
2023-02-04T13:08:29.589Z,72.98
2023-02-04T13:09:29.560Z,71.94
2023-02-04T13:10:29.551Z,71.94
2023-02-04T13:11:29.861Z,73.39
2023-02-04T13:12:29.702Z,73.80
2023-02-04T13:13:29.518Z,72.67
2023-02-04T13:14:29.565Z,72.46
2023-02-04T13:15:29.685Z,71.53
2023-02-04T13:16:29.640Z,71.73
2023-02-04T13:17:29.518Z,70.80
2023-02-04T13:18:29.465Z,71.11
2023-02-04T13:19:29.541Z,69.90
2023-02-04T13:20:29.411Z,70.21
2023-02-04T13:21:29.606Z,70.00
2023-02-04T13:22:29.370Z,69.69
2023-02-04T13:23:29.689Z,70.31
2023-02-04T13:24:29.469Z,72.08
2023-02-04T13:25:29.445Z,70.80
2023-02-04T13:26:29.320Z,71.32
2023-02-04T13:27:29.360Z,69.56
2023-02-04T13:28:29.349Z,69.14
2023-02-04T13:29:29.356Z,68.93
2023-02-04T13:30:29.427Z,68.73
2023-02-04T13:31:29.227Z,71.22
2023-02-04T13:32:29.967Z,69.97
2023-02-04T13:33:29.402Z,69.14
2023-02-04T13:34:29.231Z,68.62
2023-02-04T13:35:29.388Z,69.94
2023-02-04T13:36:29.232Z,69.32
2023-02-04T13:37:29.203Z,68.38
2023-02-04T13:38:29.172Z,68.59
2023-02-04T13:39:29.152Z,66.52
2023-02-04T13:40:29.166Z,66.55
2023-02-04T13:41:29.232Z,65.72
2023-02-04T13:42:29.210Z,67.03
2023-02-04T13:43:29.146Z,67.94
2023-02-04T13:44:29.154Z,69.29
2023-02-04T13:45:29.156Z,68.22
2023-02-04T13:46:29.081Z,67.91
2023-02-04T13:47:29.100Z,68.29
2023-02-04T13:48:29.038Z,67.57
2023-02-04T13:49:29.000Z,67.67
2023-02-04T13:50:29.136Z,68.91
2023-02-04T13:51:29.026Z,67.64
2023-02-04T13:52:29.006Z,67.12
2023-02-04T13:53:29.083Z,66.06
2023-02-04T13:54:28.955Z,66.26
2023-02-04T13:55:29.071Z,64.09
2023-02-04T13:56:28.916Z,63.71
2023-02-04T13:57:28.914Z,63.92
2023-02-04T13:58:28.983Z,64.12
2023-02-04T13:59:29.651Z,65.05
2023-02-04T14:00:28.905Z,64.32
2023-02-04T14:01:28.855Z,64.23
2023-02-04T14:02:28.915Z,63.29
2023-02-04T14:03:28.852Z,62.26
2023-02-04T14:04:28.856Z,62.37
2023-02-04T14:05:29.053Z,61.15
2023-02-04T14:06:28.817Z,61.36
2023-02-04T14:07:28.817Z,64.04
2023-02-04T14:08:28.779Z,61.38
2023-02-04T14:09:28.846Z,62.63
2023-02-04T14:10:28.712Z,61.80
2023-02-04T14:11:28.763Z,61.80
2023-02-04T14:12:28.702Z,63.46
2023-02-04T14:13:28.702Z,62.04
2023-02-04T14:14:28.657Z,62.66
2023-02-04T14:15:28.709Z,61.52
2023-02-04T14:16:28.730Z,63.17
2023-02-04T14:17:28.589Z,63.59
2023-02-04T14:18:28.654Z,61.93
2023-02-04T14:19:28.604Z,62.06
2023-02-04T14:20:28.647Z,61.55
2023-02-04T14:21:28.634Z,62.48
2023-02-04T14:22:28.550Z,63.79
2023-02-04T14:23:28.550Z,63.07
2023-02-04T14:24:28.623Z,62.14
2023-02-04T14:25:28.538Z,63.38
2023-02-04T14:26:28.504Z,63.79
2023-02-04T14:27:28.695Z,63.28
2023-02-04T14:28:28.508Z,61.83
2023-02-04T14:29:28.493Z,63.17
2023-02-04T14:30:28.566Z,63.35
2023-02-04T14:31:28.541Z,63.56
2023-02-04T14:32:28.451Z,64.59
2023-02-04T14:33:28.581Z,63.56
2023-02-04T14:34:28.449Z,63.46
2023-02-04T14:35:28.410Z,64.70
2023-02-04T14:36:28.375Z,64.98
2023-02-04T14:37:28.405Z,66.53
2023-02-04T14:38:28.359Z,66.32
2023-02-04T14:39:28.434Z,64.46
2023-02-04T14:40:28.322Z,64.56
2023-02-04T14:41:28.425Z,64.98
2023-02-04T14:42:28.324Z,65.60
2023-02-04T14:43:28.356Z,63.35
2023-02-04T14:44:28.582Z,63.76
2023-02-04T14:45:28.279Z,63.17
2023-02-04T14:46:28.365Z,64.76
2023-02-04T14:47:28.246Z,64.34
2023-02-04T14:48:28.244Z,63.75
2023-02-04T14:49:28.282Z,64.69
2023-02-04T14:50:28.314Z,65.65
2023-02-04T14:51:28.204Z,65.23
2023-02-04T14:52:28.194Z,66.47
2023-02-04T14:53:28.184Z,64.40
2023-02-04T14:54:28.181Z,63.78
2023-02-04T14:55:28.227Z,63.37
2023-02-04T14:56:28.162Z,64.51
2023-02-04T14:57:28.128Z,63.99
2023-02-04T14:58:28.210Z,64.82
2023-02-04T14:59:28.082Z,66.47
2023-02-04T15:00:28.191Z,64.61
2023-02-04T15:01:28.154Z,63.47
2023-02-04T15:02:28.180Z,65.34
2023-02-04T15:03:28.053Z,66.06
2023-02-04T15:04:28.051Z,66.09
2023-02-04T15:05:28.029Z,65.78
2023-02-04T15:06:28.179Z,65.89
2023-02-04T15:07:27.981Z,65.37
2023-02-04T15:08:27.997Z,65.70
2023-02-04T15:09:27.965Z,65.70
2023-02-04T15:10:27.977Z,65.91
2023-02-04T15:11:27.945Z,65.91
2023-02-04T15:12:27.980Z,65.53
2023-02-04T15:13:27.931Z,65.42
2023-02-04T15:14:27.892Z,64.28
2023-02-04T15:15:27.871Z,64.90
2023-02-04T15:16:27.864Z,63.69
2023-02-04T15:17:27.828Z,64.42
2023-02-04T15:18:27.942Z,64.62
2023-02-04T15:19:27.838Z,65.45
2023-02-04T15:20:27.821Z,66.60
2023-02-04T15:21:27.822Z,66.31
2023-02-04T15:22:27.777Z,64.65
2023-02-04T15:23:27.760Z,64.76
2023-02-04T15:24:27.819Z,65.69
2023-02-04T15:25:27.756Z,66.31
2023-02-04T15:26:27.754Z,67.05
2023-02-04T15:27:27.740Z,68.40
2023-02-04T15:28:27.862Z,65.69
2023-02-04T15:29:27.709Z,66.66
2023-02-04T15:30:27.715Z,66.63
2023-02-04T15:31:27.762Z,65.69
2023-02-04T15:32:27.679Z,66.11
2023-02-04T15:33:27.704Z,66.14
2023-02-04T15:34:27.785Z,66.77
2023-02-04T15:35:27.617Z,67.80
2023-02-04T15:36:27.681Z,68.22
2023-02-04T15:37:27.602Z,68.53
2023-02-04T15:38:27.540Z,68.43
2023-02-04T15:39:27.667Z,67.32
2023-02-04T15:40:27.566Z,67.83
2023-02-04T15:41:27.576Z,68.35
2023-02-04T15:42:27.508Z,68.77
2023-02-04T15:43:27.535Z,70.12
2023-02-04T15:44:27.519Z,69.92
2023-02-04T15:45:27.483Z,70.89
2023-02-04T15:46:27.618Z,70.78
2023-02-04T15:47:27.440Z,70.57
2023-02-04T15:48:27.496Z,69.53
2023-02-04T15:49:27.517Z,71.09
2023-02-04T15:50:27.488Z,71.12
2023-02-04T15:51:27.515Z,71.65
2023-02-04T15:52:29.186Z,71.65
2023-02-04T15:53:27.425Z,71.68
2023-02-04T15:54:27.474Z,71.68
2023-02-04T15:55:27.375Z,71.78
2023-02-04T15:56:27.403Z,72.51
2023-02-04T15:57:27.779Z,73.14
2023-02-04T15:58:27.389Z,73.59
2023-02-04T15:59:27.271Z,74.21
2023-02-04T16:00:27.505Z,74.52
2023-02-04T16:01:27.410Z,74.11
2023-02-04T16:02:27.353Z,73.69
2023-02-04T16:03:27.267Z,73.59
2023-02-04T16:04:27.373Z,73.49
2023-02-04T16:05:27.237Z,73.59
2023-02-04T16:06:27.226Z,74.21
2023-02-04T16:07:27.367Z,75.36
2023-02-04T16:08:27.334Z,76.09
2023-02-04T16:09:27.175Z,75.26
2023-02-04T16:10:27.318Z,75.26
2023-02-04T16:11:27.193Z,74.74
2023-02-04T16:12:27.294Z,75.15
2023-02-04T16:13:27.122Z,75.36
2023-02-04T16:14:27.093Z,74.01
2023-02-04T16:15:27.085Z,73.55
2023-02-04T16:16:27.115Z,73.66
2023-02-04T16:17:27.148Z,72.20
2023-02-04T16:18:27.117Z,72.58
2023-02-04T16:19:27.187Z,73.00
2023-02-04T16:20:27.340Z,71.54
2023-02-04T16:21:27.228Z,72.27
2023-02-04T16:22:28.214Z,71.96
2023-02-04T16:23:26.986Z,71.65
2023-02-04T16:24:27.030Z,70.19
2023-02-04T16:25:27.125Z,70.71
2023-02-04T16:26:26.927Z,71.12
2023-02-04T16:27:27.418Z,69.77
2023-02-04T16:28:26.928Z,71.02
2023-02-04T16:29:27.410Z,69.98
2023-02-04T16:30:27.081Z,70.61
2023-02-04T16:31:27.406Z,70.71
2023-02-04T16:32:26.901Z,70.71
2023-02-04T16:33:27.135Z,71.02
2023-02-04T16:34:26.836Z,70.40
2023-02-04T16:35:26.834Z,70.71
2023-02-04T16:36:26.980Z,71.44
2023-02-04T16:37:26.814Z,72.17
2023-02-04T16:38:26.807Z,72.06
2023-02-04T16:39:26.815Z,72.06
2023-02-04T16:40:26.716Z,72.27
2023-02-04T16:41:26.831Z,72.06
2023-02-04T16:42:26.717Z,69.98
2023-02-04T16:43:26.678Z,70.81
2023-02-04T16:44:26.690Z,69.98
2023-02-04T16:45:26.867Z,71.02
2023-02-04T16:46:26.717Z,70.71
2023-02-04T16:47:26.828Z,69.67
2023-02-04T16:48:26.626Z,68.21
2023-02-04T16:49:26.633Z,67.86
2023-02-04T16:50:26.632Z,67.86
2023-02-04T16:51:26.653Z,67.76
2023-02-04T16:52:26.643Z,66.83
2023-02-04T16:53:26.672Z,67.24
2023-02-04T16:54:26.662Z,68.80
2023-02-04T16:55:26.792Z,68.28
2023-02-04T16:56:26.642Z,68.07
2023-02-04T16:57:26.587Z,67.03
2023-02-04T16:58:26.652Z,66.93
2023-02-04T16:59:26.496Z,67.66
2023-02-04T17:00:26.466Z,66.09
2023-02-04T17:01:26.524Z,66.51
2023-02-04T17:02:26.499Z,67.03
2023-02-04T17:03:26.477Z,67.03
2023-02-04T17:04:26.397Z,66.83
2023-02-04T17:05:26.502Z,66.51
2023-02-04T17:06:26.641Z,66.93
2023-02-04T17:07:26.495Z,68.49
2023-02-04T17:08:26.381Z,67.14
2023-02-04T17:09:26.811Z,66.83
2023-02-04T17:10:26.324Z,67.14
2023-02-04T17:11:26.342Z,68.28
2023-02-04T17:12:26.302Z,69.12
2023-02-04T17:13:26.271Z,69.46
2023-02-04T17:14:26.449Z,68.63
2023-02-04T17:15:26.287Z,68.94
2023-02-04T17:16:26.370Z,69.56
2023-02-04T17:17:26.256Z,69.98
2023-02-04T17:18:26.222Z,68.84
2023-02-04T17:19:26.269Z,69.35
2023-02-04T17:20:26.319Z,68.73
2023-02-04T17:21:26.177Z,67.90
2023-02-04T17:22:26.176Z,67.90
2023-02-04T17:23:26.202Z,67.58
2023-02-04T17:24:26.336Z,67.90
2023-02-04T17:25:26.232Z,68.42
2023-02-04T17:26:26.349Z,67.90
2023-02-04T17:27:26.143Z,68.10
2023-02-04T17:28:26.065Z,67.79
2023-02-04T17:29:26.180Z,67.07
2023-02-04T17:30:26.073Z,68.42
2023-02-04T17:31:26.310Z,68.42
2023-02-04T17:32:26.349Z,67.17
2023-02-04T17:33:26.157Z,68.21
2023-02-04T17:34:26.392Z,68.21
2023-02-04T17:35:26.178Z,68.84
2023-02-04T17:36:26.009Z,69.15
2023-02-04T17:37:26.251Z,69.49
2023-02-04T17:38:27.624Z,70.01
2023-02-04T17:39:26.162Z,69.38
2023-02-04T17:40:27.052Z,68.35
2023-02-04T17:41:26.010Z,68.87
2023-02-04T17:42:26.097Z,69.70
2023-02-04T17:43:26.760Z,70.64
2023-02-04T17:44:27.738Z,70.22
2023-02-04T17:45:25.857Z,68.87
2023-02-04T17:46:25.948Z,69.70
2023-02-04T17:47:25.884Z,68.97
2023-02-04T17:48:25.817Z,69.91
2023-02-04T17:49:25.916Z,70.32
2023-02-04T17:50:26.014Z,69.28
2023-02-04T17:51:25.834Z,68.55
2023-02-04T17:52:25.767Z,67.72
2023-02-04T17:53:25.843Z,68.35
2023-02-04T17:54:25.723Z,70.01
2023-02-04T17:55:26.040Z,69.28
2023-02-04T17:56:25.737Z,68.97
2023-02-04T17:57:25.846Z,68.45
2023-02-04T17:58:25.699Z,67.72
2023-02-04T17:59:25.687Z,68.55
2023-02-04T18:00:25.766Z,68.35
2023-02-04T18:01:25.892Z,66.57
2023-02-04T18:02:25.736Z,67.72
2023-02-04T18:03:25.656Z,67.61
2023-02-04T18:04:25.702Z,68.66
2023-02-04T18:05:25.863Z,68.55
2023-02-04T18:06:25.754Z,68.45
2023-02-04T18:07:25.582Z,68.55
2023-02-04T18:08:25.693Z,69.49
2023-02-04T18:09:25.864Z,67.41
2023-02-04T18:10:25.522Z,68.45
2023-02-04T18:11:27.543Z,68.45
2023-02-04T18:12:25.620Z,67.61
2023-02-04T18:13:25.547Z,68.66
2023-02-04T18:14:25.487Z,69.59
2023-02-04T18:15:25.539Z,68.45
2023-02-04T18:16:25.879Z,68.24
2023-02-04T18:17:25.549Z,68.24
2023-02-04T18:18:25.449Z,68.66
2023-02-04T18:19:25.540Z,69.42
2023-02-04T18:20:25.444Z,67.72
2023-02-04T18:21:25.433Z,67.51
2023-02-04T18:22:25.382Z,68.55
2023-02-04T18:23:25.446Z,68.87
2023-02-04T18:24:25.391Z,68.07
2023-02-04T18:25:25.537Z,68.48
2023-02-04T18:26:25.353Z,69.73
2023-02-04T18:27:25.524Z,69.94
2023-02-04T18:28:25.366Z,68.69
2023-02-04T18:29:25.595Z,69.00
2023-02-04T18:30:25.374Z,69.10
2023-02-04T18:31:25.618Z,69.94
2023-02-04T18:32:25.374Z,70.56
2023-02-04T18:33:25.516Z,70.70
2023-02-04T18:34:25.343Z,70.70
2023-02-04T18:35:25.277Z,70.81
2023-02-04T18:36:25.373Z,71.53
2023-02-04T18:37:25.219Z,71.64
2023-02-04T18:38:25.456Z,71.64
2023-02-04T18:39:25.208Z,70.18
2023-02-04T18:40:25.166Z,70.07
2023-02-04T18:41:25.146Z,69.76
2023-02-04T18:42:25.127Z,72.16
2023-02-04T18:43:25.095Z,71.95
2023-02-04T18:44:25.436Z,72.27
2023-02-04T18:45:25.251Z,72.47
2023-02-04T18:46:25.089Z,73.10
2023-02-04T18:47:25.200Z,72.68
2023-02-04T18:48:25.071Z,72.92
2023-02-04T18:49:25.209Z,73.45
2023-02-04T18:50:25.104Z,73.97
2023-02-04T18:51:25.029Z,71.15
2023-02-04T18:52:25.049Z,72.51
2023-02-04T18:53:24.981Z,73.03
2023-02-04T18:54:25.070Z,72.51
2023-02-04T18:55:25.200Z,72.41
2023-02-04T18:56:25.094Z,73.03
2023-02-04T18:57:25.023Z,73.76
2023-02-04T18:58:25.071Z,73.97
2023-02-04T18:59:24.926Z,73.97
2023-02-04T19:00:25.042Z,73.97
2023-02-04T19:01:24.920Z,73.58
2023-02-04T19:02:24.976Z,73.17
2023-02-04T19:03:24.949Z,73.79
2023-02-04T19:04:24.857Z,74.84
2023-02-04T19:05:24.900Z,75.05
2023-02-04T19:06:25.021Z,74.73
2023-02-04T19:07:24.890Z,74.63
2023-02-04T19:08:25.051Z,74.45
2023-02-04T19:09:24.973Z,74.87
2023-02-04T19:10:25.051Z,75.50
2023-02-04T19:11:24.751Z,76.65
2023-02-04T19:12:24.767Z,76.65
2023-02-04T19:13:24.731Z,76.23
2023-02-04T19:14:24.723Z,76.23
2023-02-04T19:15:24.790Z,75.71
2023-02-04T19:16:24.746Z,76.44
2023-02-04T19:17:24.684Z,76.02
2023-02-04T19:18:24.662Z,76.02
2023-02-04T19:19:24.645Z,75.81
2023-02-04T19:20:24.636Z,76.44
2023-02-04T19:21:24.724Z,76.44
2023-02-04T19:22:24.616Z,76.44
2023-02-04T19:23:24.597Z,76.33
2023-02-04T19:24:24.728Z,76.44
2023-02-04T19:25:24.585Z,76.75
2023-02-04T19:26:24.545Z,77.38
2023-02-04T19:27:24.630Z,76.86
2023-02-04T19:28:24.731Z,76.96
2023-02-04T19:29:24.560Z,76.54
2023-02-04T19:30:24.553Z,76.75
2023-02-04T19:31:24.579Z,77.27
2023-02-04T19:32:24.495Z,77.38
2023-02-04T19:33:24.574Z,76.96
2023-02-04T19:34:24.444Z,76.96
2023-02-04T19:35:24.456Z,76.96
2023-02-04T19:36:24.467Z,77.38
2023-02-04T19:37:24.579Z,77.69
2023-02-04T19:38:24.396Z,77.90
2023-02-04T19:39:24.649Z,78.11
2023-02-04T19:40:24.408Z,77.17
2023-02-04T19:41:24.572Z,76.86
2023-02-04T19:42:24.362Z,77.80
2023-02-04T19:43:24.350Z,77.38
2023-02-04T19:44:24.337Z,77.69
2023-02-04T19:45:24.415Z,76.65
2023-02-04T19:46:24.450Z,76.23
2023-02-04T19:47:24.316Z,76.57
2023-02-04T19:48:24.301Z,76.68
2023-02-04T19:49:24.305Z,77.51
2023-02-04T19:50:24.262Z,78.04
2023-02-04T19:51:24.327Z,78.25
2023-02-04T19:52:24.252Z,77.73
2023-02-04T19:53:24.276Z,78.67
2023-02-04T19:54:24.256Z,79.61
2023-02-04T19:55:24.263Z,79.50
2023-02-04T19:56:24.174Z,78.25
2023-02-04T19:57:24.223Z,78.04
2023-02-04T19:58:24.175Z,77.62
2023-02-04T19:59:24.238Z,78.98
2023-02-04T20:00:24.383Z,77.73
2023-02-04T20:01:24.307Z,78.56
2023-02-04T20:02:24.286Z,78.14
2023-02-04T20:03:24.239Z,78.14
2023-02-04T20:04:24.129Z,78.14
2023-02-04T20:05:24.068Z,77.83
2023-02-04T20:06:24.074Z,77.94
2023-02-04T20:07:24.058Z,78.04
2023-02-04T20:08:24.180Z,78.35
2023-02-04T20:09:24.031Z,78.25
2023-02-04T20:10:24.113Z,77.94
2023-02-04T20:11:23.997Z,78.35
2023-02-04T20:12:24.104Z,78.14
2023-02-04T20:13:24.255Z,77.73
2023-02-04T20:14:24.095Z,78.21
2023-02-04T20:15:23.950Z,77.69
2023-02-04T20:16:23.943Z,77.31
2023-02-04T20:17:23.912Z,77.31
2023-02-04T20:18:24.089Z,77.38
2023-02-04T20:19:23.947Z,76.86
2023-02-04T20:20:24.181Z,76.75
2023-02-04T20:21:23.940Z,76.68
2023-02-04T20:22:23.878Z,76.96
2023-02-04T20:23:23.917Z,78.25
2023-02-04T20:24:24.087Z,78.67
2023-02-04T20:25:23.930Z,78.56
2023-02-04T20:26:24.182Z,77.83
2023-02-04T20:27:23.925Z,77.10
2023-02-04T20:28:23.774Z,77.31
2023-02-04T20:29:23.923Z,77.94
2023-02-04T20:30:23.772Z,77.94
2023-02-04T20:31:24.040Z,77.94
2023-02-04T20:32:23.843Z,77.73
2023-02-04T20:33:23.922Z,78.04
2023-02-04T20:34:23.765Z,78.14
2023-02-04T20:35:23.937Z,78.46
2023-02-04T20:36:23.747Z,78.35
2023-02-04T20:37:23.647Z,77.83
2023-02-04T20:38:24.106Z,77.94
2023-02-04T20:39:23.640Z,78.35
2023-02-04T20:40:23.599Z,78.04
2023-02-04T20:41:23.561Z,78.67
2023-02-04T20:42:23.578Z,79.71
2023-02-04T20:43:23.716Z,80.65
2023-02-04T20:44:23.568Z,81.38
2023-02-04T20:45:23.563Z,82.01
2023-02-04T20:46:23.568Z,80.76
2023-02-04T20:47:23.592Z,80.24
2023-02-04T20:48:23.493Z,80.76
2023-02-04T20:49:23.770Z,80.86
2023-02-04T20:50:23.473Z,79.44
2023-02-04T20:51:23.710Z,79.22
2023-02-04T20:52:23.489Z,78.81
2023-02-04T20:53:23.618Z,79.33
2023-02-04T20:54:23.438Z,78.81
2023-02-04T20:55:23.719Z,79.22
2023-02-04T20:56:23.449Z,78.18
2023-02-04T20:57:23.388Z,78.49
2023-02-04T20:58:23.437Z,78.77
2023-02-04T20:59:23.351Z,79.19
2023-02-04T21:00:23.446Z,78.88
2023-02-04T21:01:23.495Z,79.08
2023-02-04T21:02:23.435Z,79.29
2023-02-04T21:03:23.313Z,78.67
2023-02-04T21:04:23.465Z,78.98
2023-02-04T21:05:23.283Z,80.44
2023-02-04T21:06:23.492Z,79.71
2023-02-04T21:07:23.349Z,79.61
2023-02-04T21:08:23.253Z,79.40
2023-02-04T21:09:23.297Z,79.92
2023-02-04T21:10:23.449Z,79.40
2023-02-04T21:11:23.318Z,78.98
2023-02-04T21:12:23.208Z,78.67
2023-02-04T21:13:23.297Z,78.88
2023-02-04T21:14:23.193Z,78.98
2023-02-04T21:15:23.167Z,78.14
2023-02-04T21:16:23.168Z,78.56
2023-02-04T21:17:23.293Z,78.14
2023-02-04T21:18:23.134Z,78.56
2023-02-04T21:19:23.576Z,78.04
2023-02-04T21:20:23.123Z,77.62
2023-02-04T21:21:23.110Z,78.04
2023-02-04T21:22:23.126Z,78.35
2023-02-04T21:23:23.052Z,77.94
2023-02-04T21:24:23.112Z,78.04
2023-02-04T21:25:23.088Z,78.35
2023-02-04T21:26:23.038Z,79.19
2023-02-04T21:27:23.288Z,79.50
2023-02-04T21:28:22.996Z,78.77
2023-02-04T21:29:23.287Z,78.88
2023-02-04T21:30:23.127Z,79.50
2023-02-04T21:31:23.415Z,79.40
2023-02-04T21:32:22.948Z,79.08
2023-02-04T21:33:22.974Z,79.50
2023-02-04T21:34:22.936Z,79.50
2023-02-04T21:35:22.962Z,79.29
2023-02-04T21:36:23.132Z,78.88
2023-02-04T21:37:23.291Z,78.35
2023-02-04T21:38:22.889Z,78.56
2023-02-04T21:39:22.972Z,78.35
2023-02-04T21:40:22.848Z,78.56
2023-02-04T21:41:22.842Z,78.14
2023-02-04T21:42:23.142Z,77.73
2023-02-04T21:43:22.987Z,77.31
2023-02-04T21:44:22.787Z,77.73
2023-02-04T21:45:22.772Z,77.62
2023-02-04T21:46:22.780Z,77.73
2023-02-04T21:47:23.038Z,78.14
2023-02-04T21:48:22.765Z,77.73
2023-02-04T21:49:22.968Z,76.89
2023-02-04T21:50:22.792Z,77.55
2023-02-04T21:51:22.982Z,77.87
2023-02-04T21:52:22.812Z,77.97
2023-02-04T21:53:22.733Z,77.87
2023-02-04T21:54:22.813Z,77.97
2023-02-04T21:55:22.654Z,78.28
2023-02-04T21:56:22.794Z,77.45
2023-02-04T21:57:22.648Z,78.39
2023-02-04T21:58:22.804Z,78.22
2023-02-04T21:59:22.706Z,78.01
2023-02-04T22:00:22.580Z,78.11
2023-02-04T22:01:22.709Z,78.32
2023-02-04T22:02:22.799Z,78.74
2023-02-04T22:03:22.663Z,78.11
2023-02-04T22:04:22.614Z,78.04
2023-02-04T22:05:22.648Z,78.36
2023-02-04T22:06:22.822Z,78.67
2023-02-04T22:07:22.481Z,78.36
2023-02-04T22:08:22.480Z,78.46
2023-02-04T22:09:22.456Z,78.67
2023-02-04T22:10:22.556Z,79.30
2023-02-04T22:11:22.444Z,79.54
2023-02-04T22:12:22.497Z,78.81
2023-02-04T22:13:22.678Z,79.02
2023-02-04T22:14:22.499Z,79.23
2023-02-04T22:15:22.676Z,79.54
2023-02-04T22:16:22.421Z,80.52
2023-02-04T22:17:22.355Z,80.00
2023-02-04T22:18:22.342Z,79.58
2023-02-04T22:19:22.339Z,79.58
2023-02-04T22:20:22.308Z,80.00
2023-02-04T22:21:22.368Z,80.21
2023-02-04T22:22:22.489Z,80.10
2023-02-04T22:23:22.320Z,80.42
2023-02-04T22:24:22.249Z,80.73
2023-02-04T22:25:22.359Z,80.42
2023-02-04T22:26:22.241Z,79.90
2023-02-04T22:27:22.398Z,79.90
2023-02-04T22:28:22.204Z,80.00
2023-02-04T22:29:22.186Z,79.58
2023-02-04T22:30:22.233Z,80.00
2023-02-04T22:31:22.398Z,79.68
2023-02-04T22:32:22.178Z,80.17
2023-02-04T22:33:22.200Z,80.80
2023-02-04T22:34:22.147Z,81.12
2023-02-04T22:35:22.345Z,82.26
2023-02-04T22:36:22.162Z,82.58
2023-02-04T22:37:22.093Z,82.37
2023-02-04T22:38:22.254Z,81.22
2023-02-04T22:39:22.334Z,81.88
2023-02-04T22:40:22.173Z,81.36
2023-02-04T22:41:22.064Z,80.94
2023-02-04T22:42:22.172Z,81.46
2023-02-04T22:43:22.083Z,81.36
2023-02-04T22:44:22.181Z,82.30
2023-02-04T22:45:22.022Z,82.40
2023-02-04T22:46:22.034Z,83.35
2023-02-04T22:47:22.019Z,84.29
2023-02-04T22:48:22.026Z,83.98
2023-02-04T22:49:22.002Z,83.18
2023-02-04T22:50:22.189Z,82.55
2023-02-04T22:51:21.892Z,82.76
2023-02-04T22:52:21.869Z,83.28
2023-02-04T22:53:22.074Z,83.07
2023-02-04T22:54:22.165Z,83.18
2023-02-04T22:55:21.864Z,83.28
2023-02-04T22:56:21.867Z,82.76
2023-02-04T22:57:21.825Z,82.65
2023-02-04T22:58:21.858Z,82.55
2023-02-04T22:59:22.099Z,83.49
2023-02-04T23:00:21.876Z,83.07
2023-02-04T23:01:21.769Z,83.28
2023-02-04T23:02:21.788Z,84.12
2023-02-04T23:03:21.757Z,84.33
2023-02-04T23:04:21.917Z,84.22
2023-02-04T23:05:21.735Z,84.44
2023-02-04T23:06:21.846Z,83.91
2023-02-04T23:07:21.695Z,83.59
2023-02-04T23:08:21.694Z,85.27
2023-02-04T23:09:21.663Z,85.80
2023-02-04T23:10:21.684Z,84.64
2023-02-04T23:11:21.729Z,84.22
2023-02-04T23:12:21.869Z,83.91
2023-02-04T23:13:21.724Z,83.91
2023-02-04T23:14:21.848Z,84.22
2023-02-04T23:15:21.699Z,84.64
2023-02-04T23:16:22.073Z,84.44
2023-02-04T23:17:21.640Z,85.55
2023-02-04T23:18:21.529Z,85.65